createdAt,value
2022-12-28T00:00:28.950Z,11.10
2022-12-28T00:02:01.970Z,12.48
2022-12-28T00:03:35.030Z,10.98
2022-12-28T00:05:08.465Z,12.25
2022-12-28T00:08:14.243Z,13.40
2022-12-28T00:09:47.166Z,12.48
2022-12-28T00:11:28.224Z,11.52
2022-12-28T00:13:03.777Z,12.55
2022-12-28T00:14:36.748Z,10.57
2022-12-28T00:16:10.924Z,10.35
2022-12-28T00:17:43.778Z,14.60
2022-12-28T00:19:18.012Z,12.05
2022-12-28T00:20:57.276Z,13.27
2022-12-28T00:22:30.216Z,11.50
2022-12-28T00:24:03.593Z,11.23
2022-12-28T00:27:10.762Z,11.27
2022-12-28T00:28:42.662Z,11.97
2022-12-28T00:30:15.661Z,12.63
2022-12-28T00:31:48.678Z,11.98
2022-12-28T00:33:21.666Z,12.05
2022-12-28T00:34:54.584Z,13.27
2022-12-28T00:37:08.484Z,10.65
2022-12-28T00:38:19.500Z,11.83
2022-12-28T00:39:52.481Z,11.20
2022-12-28T00:41:24.575Z,12.60
2022-12-28T00:42:58.859Z,12.97
2022-12-28T00:44:31.744Z,10.80
2022-12-28T00:46:05.134Z,13.02
2022-12-28T00:49:11.022Z,13.70
2022-12-28T00:50:45.227Z,13.95
2022-12-28T00:52:18.159Z,11.50
2022-12-28T00:53:51.003Z,11.57
2022-12-28T00:55:23.977Z,13.32
2022-12-28T00:56:56.830Z,19.63
2022-12-28T00:58:30.202Z,12.32
2022-12-28T01:01:34.954Z,12.67
2022-12-28T01:03:07.959Z,11.53
2022-12-28T01:04:40.918Z,14.15
2022-12-28T01:06:15.973Z,12.55
2022-12-28T01:07:48.876Z,11.03
2022-12-28T01:09:21.826Z,14.85
2022-12-28T01:10:54.735Z,11.93
2022-12-28T01:12:29.090Z,11.38
2022-12-28T01:14:06.187Z,14.37
2022-12-28T01:15:39.452Z,12.53
2022-12-28T01:17:12.394Z,12.35
2022-12-28T01:18:46.371Z,12.48
2022-12-28T01:20:19.391Z,13.47
2022-12-28T01:21:53.449Z,12.95
2022-12-28T01:23:26.421Z,11.23
2022-12-28T01:24:59.720Z,14.98
2022-12-28T01:26:32.876Z,12.50
2022-12-28T01:28:06.214Z,13.52
2022-12-28T01:29:40.540Z,12.27
2022-12-28T01:31:16.050Z,15.97
2022-12-28T01:32:48.948Z,11.80
2022-12-28T01:34:21.868Z,13.95
2022-12-28T01:35:54.793Z,15.10
2022-12-28T01:37:27.691Z,14.70
2022-12-28T01:39:03.748Z,12.25
2022-12-28T01:40:36.701Z,14.23
2022-12-28T01:42:16.331Z,14.10
2022-12-28T01:44:28.078Z,14.97
2022-12-28T01:46:02.449Z,14.23
2022-12-28T01:47:36.720Z,12.97
2022-12-28T01:49:16.835Z,13.67
2022-12-28T01:50:51.163Z,15.53
2022-12-28T01:52:28.843Z,15.57
2022-12-28T01:54:03.525Z,13.70
2022-12-28T01:55:40.257Z,15.67
2022-12-28T01:57:13.749Z,15.37
2022-12-28T01:58:47.609Z,14.20
2022-12-28T02:00:20.632Z,13.07
2022-12-28T02:01:54.189Z,15.27
2022-12-28T02:03:30.129Z,15.20
2022-12-28T02:05:02.316Z,15.60
2022-12-28T02:06:35.281Z,14.53
2022-12-28T02:08:11.839Z,16.20
2022-12-28T02:09:44.564Z,16.40
2022-12-28T02:11:38.921Z,14.87
2022-12-28T02:13:11.974Z,14.63
2022-12-28T02:14:45.709Z,16.52
2022-12-28T02:16:18.836Z,17.03
2022-12-28T02:17:53.226Z,12.43
2022-12-28T02:19:35.211Z,16.73
2022-12-28T02:21:27.572Z,16.90
2022-12-28T02:23:28.830Z,15.50
2022-12-28T02:25:24.012Z,18.00
2022-12-28T02:27:02.805Z,16.43
2022-12-28T02:29:04.596Z,16.00
2022-12-28T02:30:44.425Z,18.43
2022-12-28T02:32:33.306Z,18.70
2022-12-28T02:34:14.285Z,17.20
2022-12-28T02:35:54.519Z,20.87
2022-12-28T02:37:33.466Z,16.93
2022-12-28T02:39:10.562Z,19.43
2022-12-28T02:40:48.007Z,20.60
2022-12-28T02:42:24.068Z,16.90
2022-12-28T02:44:00.548Z,18.50
2022-12-28T02:45:53.810Z,17.37
2022-12-28T02:47:44.374Z,18.20
2022-12-28T02:49:37.465Z,20.77
2022-12-28T02:51:25.013Z,19.23
2022-12-28T02:53:22.834Z,20.67
2022-12-28T02:55:28.966Z,22.77
2022-12-28T02:57:09.627Z,18.63
2022-12-28T02:59:17.045Z,20.43
2022-12-28T03:01:04.108Z,19.37
2022-12-28T03:02:49.615Z,22.00
2022-12-28T03:04:36.473Z,21.10
2022-12-28T03:06:34.898Z,16.50
2022-12-28T03:08:19.766Z,19.30
2022-12-28T03:10:00.209Z,20.70
2022-12-28T03:11:39.987Z,22.97
2022-12-28T03:13:31.498Z,21.43
2022-12-28T03:15:09.363Z,22.60
2022-12-28T03:17:04.134Z,21.37
2022-12-28T03:18:57.642Z,18.80
2022-12-28T03:20:50.612Z,20.98
2022-12-28T03:22:42.580Z,20.43
2022-12-28T03:24:35.454Z,16.97
2022-12-28T03:26:29.496Z,17.73
2022-12-28T03:28:24.447Z,20.48
2022-12-28T03:30:19.925Z,20.87
2022-12-28T03:31:54.429Z,21.93
2022-12-28T03:33:26.390Z,20.60
2022-12-28T03:34:59.454Z,20.80
2022-12-28T03:36:42.840Z,23.08
2022-12-28T03:38:27.476Z,23.30
2022-12-28T03:40:06.555Z,21.47
2022-12-28T03:41:43.903Z,21.27
2022-12-28T03:43:37.239Z,20.77
2022-12-28T03:45:44.232Z,18.15
2022-12-28T03:47:14.193Z,20.50
2022-12-28T03:48:48.087Z,21.67
2022-12-28T03:50:22.242Z,21.50
2022-12-28T03:51:56.835Z,21.43
2022-12-28T03:53:37.230Z,22.27
2022-12-28T03:55:12.131Z,21.10
2022-12-28T03:56:47.615Z,20.07
2022-12-28T03:58:21.528Z,30.80
2022-12-28T03:59:54.600Z,22.83
2022-12-28T04:01:27.642Z,21.25
2022-12-28T04:03:02.040Z,23.30
2022-12-28T04:04:34.011Z,24.30
2022-12-28T04:06:07.641Z,22.00
2022-12-28T04:07:39.597Z,23.23
2022-12-28T04:09:12.505Z,23.55
2022-12-28T04:10:45.528Z,22.10
2022-12-28T04:12:18.548Z,20.50
2022-12-28T04:13:51.429Z,20.67
2022-12-28T04:15:23.429Z,21.67
2022-12-28T04:16:56.366Z,20.10
2022-12-28T04:18:31.294Z,19.02
2022-12-28T04:20:04.546Z,19.23
2022-12-28T04:21:37.425Z,17.38
2022-12-28T04:23:09.792Z,18.67
2022-12-28T04:24:42.778Z,18.85
2022-12-28T04:26:16.780Z,20.95
2022-12-28T04:27:49.824Z,18.00
2022-12-28T04:29:22.801Z,18.15
2022-12-28T04:30:56.596Z,18.70
2022-12-28T04:32:30.742Z,19.93
2022-12-28T04:34:06.200Z,18.67
2022-12-28T04:35:38.137Z,23.43
2022-12-28T04:37:11.009Z,20.30
2022-12-28T04:38:44.087Z,19.58
2022-12-28T04:40:17.044Z,21.02
2022-12-28T04:41:50.125Z,24.90
2022-12-28T04:43:23.052Z,21.50
2022-12-28T04:44:56.049Z,22.42
2022-12-28T04:46:29.160Z,21.00
2022-12-28T04:48:02.088Z,22.20
2022-12-28T04:49:36.289Z,22.50
2022-12-28T04:51:10.512Z,21.13
2022-12-28T04:52:43.532Z,24.17
2022-12-28T04:54:16.452Z,22.27
2022-12-28T04:55:49.308Z,23.80
2022-12-28T04:57:22.422Z,23.83
2022-12-28T04:58:56.416Z,18.30
2022-12-28T05:00:29.394Z,22.98
2022-12-28T05:02:02.630Z,20.50
2022-12-28T05:03:36.322Z,21.35
2022-12-28T05:05:10.999Z,20.05
2022-12-28T05:06:43.949Z,20.88
2022-12-28T05:08:16.937Z,19.80
2022-12-28T05:09:49.839Z,20.98
2022-12-28T05:11:24.423Z,22.73
2022-12-28T05:12:57.709Z,18.60
2022-12-28T05:14:35.077Z,20.08
2022-12-28T05:16:11.444Z,19.80
2022-12-28T05:17:44.445Z,17.70
2022-12-28T05:19:17.347Z,21.30
2022-12-28T05:20:59.017Z,21.50
2022-12-28T05:22:37.690Z,20.23
2022-12-28T05:24:13.597Z,18.25
2022-12-28T05:25:54.012Z,22.55
2022-12-28T05:27:26.925Z,18.98
2022-12-28T05:29:00.127Z,21.90
2022-12-28T05:30:33.089Z,21.55
2022-12-28T05:32:07.005Z,21.30
2022-12-28T05:33:39.747Z,20.98
2022-12-28T05:35:12.679Z,20.52
2022-12-28T05:36:46.989Z,16.77
2022-12-28T05:38:19.998Z,19.42
2022-12-28T05:39:52.257Z,18.05
2022-12-28T05:41:26.687Z,18.42
2022-12-28T05:42:59.469Z,19.05
2022-12-28T05:44:32.717Z,18.88
2022-12-28T05:46:07.391Z,20.58
2022-12-28T05:47:40.403Z,20.70
2022-12-28T05:49:13.349Z,18.85
2022-12-28T05:50:46.237Z,20.90
2022-12-28T05:52:20.653Z,18.17
2022-12-28T05:53:54.247Z,20.77
2022-12-28T05:55:26.153Z,19.73
2022-12-28T05:56:59.605Z,19.00
2022-12-28T05:58:33.166Z,18.70
2022-12-28T06:00:07.356Z,21.13
2022-12-28T06:01:42.698Z,18.17
2022-12-28T06:03:14.764Z,16.90
2022-12-28T06:04:47.764Z,15.20
2022-12-28T06:06:21.611Z,19.70
2022-12-28T06:07:56.165Z,20.27
2022-12-28T06:09:29.048Z,18.13
2022-12-28T06:11:02.583Z,16.80
2022-12-28T06:12:35.569Z,17.88
2022-12-28T06:14:08.504Z,18.80
2022-12-28T06:15:41.581Z,17.40
2022-12-28T06:17:14.614Z,19.70
2022-12-28T06:18:48.256Z,19.25
2022-12-28T06:20:21.250Z,18.88
2022-12-28T06:21:54.324Z,21.80
2022-12-28T06:23:29.039Z,21.63
2022-12-28T06:25:02.086Z,19.02
2022-12-28T06:26:36.147Z,18.15
2022-12-28T06:28:09.201Z,18.13
2022-12-28T06:29:42.157Z,17.92
2022-12-28T06:31:16.780Z,21.27
2022-12-28T06:32:49.861Z,18.92
2022-12-28T06:34:22.948Z,20.98
2022-12-28T06:35:55.947Z,18.38
2022-12-28T06:37:28.895Z,17.67
2022-12-28T06:39:04.872Z,19.90
2022-12-28T06:41:11.204Z,17.45
2022-12-28T06:42:30.814Z,20.25
2022-12-28T06:44:06.684Z,18.40
2022-12-28T06:45:39.660Z,18.35
2022-12-28T06:47:12.930Z,19.05
2022-12-28T06:48:46.370Z,19.52
2022-12-28T06:51:52.236Z,21.45
2022-12-28T06:53:24.617Z,22.10
2022-12-28T06:54:59.061Z,20.48
2022-12-28T06:56:34.481Z,22.35
2022-12-28T06:58:07.573Z,21.52
2022-12-28T06:59:40.517Z,20.27
2022-12-28T07:01:16.219Z,23.33
2022-12-28T07:02:48.359Z,20.85
2022-12-28T07:04:21.300Z,18.40
2022-12-28T07:05:53.243Z,18.98
2022-12-28T07:07:26.235Z,21.33
2022-12-28T07:09:04.056Z,21.45
2022-12-28T07:10:37.405Z,21.63
2022-12-28T07:13:43.770Z,18.95
2022-12-28T07:16:49.940Z,21.90
2022-12-28T07:18:22.928Z,21.25
2022-12-28T07:19:55.888Z,21.13
2022-12-28T07:21:30.918Z,24.75
2022-12-28T07:23:03.939Z,22.02
2022-12-28T07:24:36.997Z,22.00
2022-12-28T07:26:12.839Z,20.92
2022-12-28T07:27:45.757Z,20.45
2022-12-28T07:29:18.699Z,21.15
2022-12-28T07:30:51.958Z,19.65
2022-12-28T07:32:24.936Z,19.73
2022-12-28T07:33:59.524Z,20.60
2022-12-28T07:35:32.383Z,21.70
2022-12-28T07:37:05.302Z,19.98
2022-12-28T07:38:38.339Z,22.50
2022-12-28T07:40:12.371Z,18.63
2022-12-28T07:41:46.672Z,20.88
2022-12-28T07:43:19.605Z,19.25
2022-12-28T07:44:52.568Z,20.80
2022-12-28T07:46:27.509Z,21.58
2022-12-28T07:48:00.415Z,21.15
2022-12-28T07:49:33.327Z,22.05
2022-12-28T07:51:11.419Z,21.05
2022-12-28T07:52:44.394Z,17.35
2022-12-28T07:54:17.326Z,21.38
2022-12-28T07:55:56.602Z,21.52
2022-12-28T07:57:30.952Z,25.25
2022-12-28T07:59:06.054Z,19.45
2022-12-28T08:00:39.050Z,19.63
2022-12-28T08:02:11.964Z,19.13
2022-12-28T08:03:45.359Z,22.17
2022-12-28T08:06:51.054Z,21.30
2022-12-28T08:08:23.882Z,19.98
2022-12-28T08:09:56.866Z,19.88
2022-12-28T08:11:31.890Z,21.83
2022-12-28T08:13:06.793Z,23.38
2022-12-28T08:14:39.751Z,20.60
2022-12-28T08:16:13.185Z,20.35
2022-12-28T08:19:19.069Z,17.95
2022-12-28T08:20:51.933Z,19.13
2022-12-28T08:22:25.448Z,18.17
2022-12-28T08:25:31.414Z,16.77
2022-12-28T08:27:04.400Z,16.40
2022-12-28T08:28:40.102Z,17.52
2022-12-28T08:30:13.915Z,22.15
2022-12-28T08:31:47.668Z,18.08
2022-12-28T08:33:20.621Z,16.92
2022-12-28T08:34:53.499Z,16.63
2022-12-28T08:36:26.872Z,17.77
2022-12-28T08:39:32.506Z,14.32
2022-12-28T08:41:06.753Z,13.88
2022-12-28T08:42:39.796Z,17.10
2022-12-28T08:44:14.234Z,17.10
2022-12-28T08:45:58.300Z,16.58
2022-12-28T08:47:31.443Z,17.90
2022-12-28T08:49:06.601Z,14.63
2022-12-28T08:50:39.550Z,15.13
2022-12-28T08:52:12.534Z,15.95
2022-12-28T08:53:45.734Z,18.10
2022-12-28T08:55:18.711Z,14.10
2022-12-28T08:56:51.673Z,14.63
2022-12-28T08:58:23.655Z,14.88
2022-12-28T08:59:57.949Z,15.75
2022-12-28T09:01:37.330Z,17.95
2022-12-28T09:03:14.166Z,15.70
2022-12-28T09:04:47.149Z,14.82
2022-12-28T09:06:21.945Z,15.77
2022-12-28T09:07:59.551Z,16.95
2022-12-28T09:09:34.501Z,15.10
2022-12-28T09:11:09.577Z,14.38
2022-12-28T09:12:42.507Z,14.35
2022-12-28T09:14:22.683Z,15.90
2022-12-28T09:16:04.274Z,15.73
2022-12-28T09:17:37.273Z,14.73
2022-12-28T09:19:14.254Z,14.10
2022-12-28T09:20:48.103Z,15.38
2022-12-28T09:22:21.234Z,12.95
2022-12-28T09:23:55.336Z,14.10
2022-12-28T09:25:28.453Z,16.40
2022-12-28T09:27:01.501Z,14.77
2022-12-28T09:28:34.902Z,14.80
2022-12-28T09:31:43.968Z,14.32
2022-12-28T09:33:50.855Z,14.80
2022-12-28T09:35:27.475Z,17.10
2022-12-28T09:37:00.557Z,15.82
2022-12-28T09:38:33.441Z,12.20
2022-12-28T09:40:07.758Z,13.70
2022-12-28T09:41:45.434Z,14.77
2022-12-28T09:43:18.771Z,12.45
2022-12-28T09:46:33.465Z,12.23
2022-12-28T09:48:12.462Z,11.85
2022-12-28T09:49:48.464Z,13.20
2022-12-28T09:51:25.918Z,11.35
2022-12-28T09:53:12.466Z,13.35
2022-12-28T09:54:45.472Z,13.73
2022-12-28T09:56:25.514Z,12.93
2022-12-28T09:58:00.727Z,13.13
2022-12-28T09:59:36.041Z,12.65
2022-12-28T10:01:13.770Z,11.27
2022-12-28T10:02:52.875Z,13.40
2022-12-28T10:04:27.399Z,12.60
2022-12-28T10:06:00.849Z,13.25
2022-12-28T10:07:34.003Z,11.00
2022-12-28T10:09:14.288Z,12.18
2022-12-28T10:10:49.326Z,18.25
2022-12-28T10:12:24.396Z,14.68
2022-12-28T10:13:58.917Z,12.68
2022-12-28T10:15:33.444Z,11.73
2022-12-28T10:17:07.666Z,11.23
2022-12-28T10:18:40.614Z,12.95
2022-12-28T10:20:18.937Z,13.02
2022-12-28T10:21:59.298Z,11.57
2022-12-28T10:23:50.157Z,11.05
2022-12-28T10:25:29.451Z,12.07
2022-12-28T10:27:06.106Z,12.90
2022-12-28T10:28:48.747Z,12.88
2022-12-28T10:30:26.744Z,13.00
2022-12-28T10:32:02.367Z,12.13
2022-12-28T10:33:39.434Z,12.43
2022-12-28T10:35:26.316Z,10.25
2022-12-28T10:37:06.860Z,12.38
2022-12-28T10:38:53.308Z,14.10
2022-12-28T10:40:29.347Z,11.88
2022-12-28T10:42:03.405Z,13.88
2022-12-28T10:43:40.642Z,12.25
2022-12-28T10:45:19.523Z,12.93
2022-12-28T10:46:55.727Z,10.93
2022-12-28T10:48:33.095Z,12.90
2022-12-28T10:52:04.657Z,11.55
2022-12-28T10:53:43.558Z,12.05
2022-12-28T10:55:29.267Z,10.85
2022-12-28T10:57:02.726Z,11.18
2022-12-28T10:58:35.997Z,11.18
2022-12-28T11:00:16.936Z,10.88
2022-12-28T11:01:50.599Z,9.98
2022-12-28T11:03:29.241Z,10.88
2022-12-28T11:05:04.334Z,10.07
2022-12-28T11:06:51.153Z,9.95
2022-12-28T11:08:25.474Z,11.15
2022-12-28T11:10:26.158Z,11.05
2022-12-28T11:12:17.676Z,11.32
2022-12-28T11:13:56.424Z,17.85
2022-12-28T11:15:31.849Z,10.38
2022-12-28T11:17:17.427Z,11.35
2022-12-28T11:18:51.155Z,11.13
2022-12-28T11:20:34.449Z,11.88
2022-12-28T11:22:10.613Z,10.20
2022-12-28T11:23:45.391Z,10.55
2022-12-28T11:25:19.682Z,14.70
2022-12-28T11:26:52.718Z,11.82
2022-12-28T11:28:26.119Z,11.57
2022-12-28T11:31:36.016Z,8.82
2022-12-28T11:33:23.478Z,9.60
2022-12-28T11:34:57.461Z,9.23
2022-12-28T11:36:32.314Z,8.57
2022-12-28T11:38:07.774Z,11.05
2022-12-28T11:39:46.524Z,8.40
2022-12-28T11:41:56.207Z,8.68
2022-12-28T11:43:53.609Z,9.38
2022-12-28T11:45:54.259Z,11.52
2022-12-28T11:47:39.048Z,9.50
2022-12-28T11:49:36.353Z,13.77
2022-12-28T11:51:17.697Z,13.07
2022-12-28T11:52:52.031Z,8.75
2022-12-28T11:54:52.014Z,10.18
2022-12-28T11:56:26.925Z,9.02
2022-12-28T11:58:49.723Z,8.77
2022-12-28T12:00:49.013Z,9.73
2022-12-28T12:02:40.580Z,9.65
2022-12-28T12:04:38.934Z,10.30
2022-12-28T12:06:11.907Z,9.27
2022-12-28T12:07:49.304Z,10.70
2022-12-28T12:09:28.063Z,9.48
2022-12-28T12:11:30.930Z,8.77
2022-12-28T12:13:42.494Z,9.43
2022-12-28T12:15:19.015Z,10.75
2022-12-28T12:16:54.953Z,15.15
2022-12-28T12:18:30.829Z,9.95
2022-12-28T12:20:08.570Z,11.00
2022-12-28T12:21:46.669Z,9.27
2022-12-28T12:23:27.501Z,8.80
2022-12-28T12:25:05.913Z,7.57
2022-12-28T12:26:46.276Z,9.32
2022-12-28T12:28:32.450Z,6.35
2022-12-28T12:30:08.949Z,7.82
2022-12-28T12:31:45.675Z,7.25
2022-12-28T12:33:25.954Z,8.45
2022-12-28T12:35:03.445Z,10.07
2022-12-28T12:37:01.216Z,7.15
2022-12-28T12:38:54.338Z,7.30
2022-12-28T12:41:13.750Z,7.22
2022-12-28T12:43:01.709Z,10.48
2022-12-28T12:44:43.762Z,6.53
2022-12-28T12:47:06.635Z,8.55
2022-12-28T12:48:58.918Z,9.20
2022-12-28T12:50:43.409Z,10.05
2022-12-28T12:52:25.235Z,6.57
2022-12-28T12:54:17.714Z,7.22
2022-12-28T12:56:00.254Z,5.63
2022-12-28T12:57:41.764Z,8.02
2022-12-28T12:59:34.625Z,7.30
2022-12-28T13:01:23.874Z,7.10
2022-12-28T13:03:20.196Z,7.63
2022-12-28T13:04:53.301Z,7.93
2022-12-28T13:06:30.150Z,9.35
2022-12-28T13:08:03.133Z,7.80
2022-12-28T13:09:37.321Z,8.02
2022-12-28T13:11:11.535Z,9.23
2022-12-28T13:12:44.925Z,7.28
2022-12-28T13:14:22.785Z,6.45
2022-12-28T13:16:00.476Z,6.35
2022-12-28T13:17:34.754Z,8.35
2022-12-28T13:19:19.535Z,6.95
2022-12-28T13:20:57.668Z,7.93
2022-12-28T13:22:32.395Z,8.50
2022-12-28T13:24:05.824Z,9.15
2022-12-28T13:27:21.575Z,10.73
2022-12-28T13:28:58.475Z,10.00
2022-12-28T13:30:33.042Z,10.73
2022-12-28T13:32:06.233Z,14.88
2022-12-28T13:33:39.826Z,9.27
2022-12-28T13:35:20.077Z,8.50
2022-12-28T13:36:58.423Z,9.18
2022-12-28T13:38:31.460Z,7.15
2022-12-28T13:40:11.382Z,7.47
2022-12-28T13:41:49.902Z,9.10
2022-12-28T13:44:02.817Z,6.93
2022-12-28T13:45:37.371Z,9.48
2022-12-28T13:47:16.335Z,22.90
2022-12-28T13:48:53.501Z,19.95
2022-12-28T13:50:29.397Z,14.15
2022-12-28T13:52:02.800Z,11.82
2022-12-28T13:55:11.744Z,11.38
2022-12-28T13:56:46.052Z,8.52
2022-12-28T13:58:23.258Z,9.52
2022-12-28T13:59:57.013Z,12.60
2022-12-28T14:01:34.638Z,20.52
2022-12-28T14:03:12.447Z,31.20
2022-12-28T14:04:53.596Z,29.88
2022-12-28T14:06:27.465Z,25.83
2022-12-28T14:08:00.588Z,17.25
2022-12-28T14:09:33.926Z,12.88
2022-12-28T14:12:41.028Z,8.05
2022-12-28T14:14:14.494Z,8.98
2022-12-28T14:15:48.087Z,10.05
2022-12-28T14:17:24.184Z,8.57
2022-12-28T14:18:58.185Z,7.00
2022-12-28T14:20:31.201Z,10.65
2022-12-28T14:22:06.754Z,8.63
2022-12-28T14:23:43.936Z,9.05
2022-12-28T14:26:53.749Z,8.63
2022-12-28T14:28:32.857Z,9.68
2022-12-28T14:30:08.895Z,9.40
2022-12-28T14:31:42.069Z,10.18
2022-12-28T14:33:25.025Z,8.43
2022-12-28T14:35:00.320Z,6.43
2022-12-28T14:36:36.678Z,8.63
2022-12-28T14:38:19.391Z,7.75
2022-12-28T14:39:52.423Z,8.48
2022-12-28T14:41:29.844Z,11.70
2022-12-28T14:43:08.724Z,14.93
2022-12-28T14:44:41.991Z,12.60
2022-12-28T14:46:17.441Z,11.75
2022-12-28T14:47:57.154Z,12.25
2022-12-28T14:49:38.520Z,13.25
2022-12-28T14:51:28.633Z,11.88
2022-12-28T14:53:11.513Z,10.57
2022-12-28T14:54:45.532Z,11.40
2022-12-28T14:56:20.580Z,13.85
2022-12-28T14:57:56.610Z,9.27
2022-12-28T14:59:33.679Z,12.07
2022-12-28T15:01:09.488Z,8.02
2022-12-28T15:02:43.208Z,13.20
2022-12-28T15:04:27.905Z,10.85
2022-12-28T15:06:02.559Z,11.00
2022-12-28T15:07:35.527Z,7.75
2022-12-28T15:09:08.933Z,11.23
2022-12-28T15:12:20.384Z,17.70
2022-12-28T15:14:00.819Z,14.48
2022-12-28T15:15:33.640Z,15.48
2022-12-28T15:17:07.052Z,11.18
2022-12-28T15:20:18.060Z,9.85
2022-12-28T15:23:25.276Z,9.00
2022-12-28T15:24:58.220Z,8.80
2022-12-28T15:26:31.455Z,11.35
2022-12-28T15:28:04.769Z,11.52
2022-12-28T15:31:30.775Z,11.60
2022-12-28T15:33:03.914Z,8.88
2022-12-28T15:34:36.765Z,10.45
2022-12-28T15:36:17.286Z,7.95
2022-12-28T15:37:52.008Z,10.48
2022-12-28T15:39:25.539Z,11.68
2022-12-28T15:40:58.628Z,9.80
2022-12-28T15:42:33.699Z,7.90
2022-12-28T15:44:11.096Z,9.70
2022-12-28T15:45:43.963Z,8.10
2022-12-28T15:47:16.911Z,8.63
2022-12-28T15:48:49.924Z,7.03
2022-12-28T15:50:23.000Z,7.93
2022-12-28T15:51:55.902Z,7.25
2022-12-28T15:53:30.399Z,6.80
2022-12-28T15:55:03.446Z,11.90
2022-12-28T15:56:38.361Z,8.35
2022-12-28T15:58:11.373Z,7.85
2022-12-28T15:59:44.362Z,10.35
2022-12-28T16:01:17.383Z,11.35
2022-12-28T16:02:50.522Z,8.18
2022-12-28T16:04:23.681Z,8.32
2022-12-28T16:05:59.968Z,8.50
2022-12-28T16:07:32.903Z,11.55
2022-12-28T16:09:07.800Z,13.50
2022-12-28T16:10:40.720Z,10.68
2022-12-28T16:12:17.133Z,10.40
2022-12-28T16:13:52.600Z,10.50
2022-12-28T16:15:25.516Z,11.05
2022-12-28T16:16:58.535Z,11.13
2022-12-28T16:18:31.507Z,8.30
2022-12-28T16:20:04.760Z,9.18
2022-12-28T16:21:37.611Z,10.32
2022-12-28T16:23:10.535Z,6.28
2022-12-28T16:24:44.816Z,28.58
2022-12-28T16:26:18.040Z,6.13
2022-12-28T16:27:51.034Z,7.97
2022-12-28T16:29:23.930Z,7.47
2022-12-28T16:30:57.731Z,8.73
2022-12-28T16:32:30.662Z,8.32
2022-12-28T16:34:05.331Z,9.38
2022-12-28T16:35:38.443Z,10.07
2022-12-28T16:37:11.674Z,10.02
2022-12-28T16:38:44.577Z,8.07
2022-12-28T16:40:18.988Z,9.32
2022-12-28T16:41:52.008Z,9.65
2022-12-28T16:43:25.313Z,8.35
2022-12-28T16:44:58.270Z,8.85
2022-12-28T16:46:31.364Z,14.05
2022-12-28T16:48:05.411Z,8.15
2022-12-28T16:49:41.181Z,11.05
2022-12-28T16:51:14.259Z,10.10
2022-12-28T16:52:47.333Z,9.05
2022-12-28T16:54:22.087Z,8.95
2022-12-28T16:56:00.252Z,9.48
2022-12-28T16:57:33.282Z,8.05
2022-12-28T16:59:06.123Z,7.40
2022-12-28T17:00:39.083Z,9.07
2022-12-28T17:02:14.213Z,8.20
2022-12-28T17:03:47.317Z,7.90
2022-12-28T17:05:20.318Z,8.77
2022-12-28T17:06:53.870Z,8.80
2022-12-28T17:08:26.834Z,8.27
2022-12-28T17:09:59.849Z,8.70
2022-12-28T17:11:34.435Z,7.53
2022-12-28T17:13:07.396Z,7.43
2022-12-28T17:14:40.283Z,8.60
2022-12-28T17:16:13.320Z,8.75
2022-12-28T17:17:46.346Z,6.72
2022-12-28T17:19:19.288Z,9.02
2022-12-28T17:20:51.474Z,7.03
2022-12-28T17:22:24.410Z,7.40
2022-12-28T17:23:57.617Z,8.73
2022-12-28T17:25:31.524Z,8.77
2022-12-28T17:27:09.023Z,10.25
2022-12-28T17:28:44.822Z,8.30
2022-12-28T17:30:18.115Z,7.47
2022-12-28T17:31:51.140Z,6.32
2022-12-28T17:33:24.378Z,11.52
2022-12-28T17:34:57.343Z,7.40
2022-12-28T17:36:30.411Z,8.32
2022-12-28T17:38:03.360Z,11.15
2022-12-28T17:39:40.366Z,9.90
2022-12-28T17:41:17.467Z,9.85
2022-12-28T17:42:51.680Z,7.68
2022-12-28T17:44:24.589Z,8.98
2022-12-28T17:45:57.526Z,8.80
2022-12-28T17:47:30.577Z,8.35
2022-12-28T17:49:03.502Z,9.25
2022-12-28T17:50:36.309Z,7.32
2022-12-28T17:52:09.528Z,7.85
2022-12-28T17:53:42.532Z,8.50
2022-12-28T17:55:15.535Z,7.40
2022-12-28T17:56:48.965Z,8.88
2022-12-28T17:59:55.957Z,7.70
2022-12-28T18:01:29.295Z,7.32
2022-12-28T18:03:02.415Z,7.45
2022-12-28T18:04:35.585Z,7.25
2022-12-28T18:06:08.974Z,5.90
2022-12-28T18:09:14.747Z,5.68
2022-12-28T18:10:48.344Z,6.97
2022-12-28T18:12:21.307Z,6.95
2022-12-28T18:13:58.904Z,7.40
2022-12-28T18:15:34.145Z,6.20
2022-12-28T18:17:07.199Z,4.95
2022-12-28T18:18:41.120Z,5.10
2022-12-28T18:20:16.039Z,5.18
2022-12-28T18:21:48.993Z,7.10
2022-12-28T18:23:21.923Z,8.52
2022-12-28T18:24:54.920Z,6.85
2022-12-28T18:26:28.297Z,6.75
2022-12-28T18:29:35.275Z,6.93
2022-12-28T18:31:09.155Z,7.85
2022-12-28T18:32:42.120Z,6.57
2022-12-28T18:34:15.346Z,9.52
2022-12-28T18:35:48.194Z,7.47
2022-12-28T18:37:21.166Z,8.38
2022-12-28T18:38:54.097Z,7.88
2022-12-28T18:40:27.022Z,9.07
2022-12-28T18:41:59.939Z,7.25
2022-12-28T18:43:33.068Z,8.43
2022-12-28T18:45:09.029Z,8.45
2022-12-28T18:46:42.063Z,8.02
2022-12-28T18:48:15.009Z,8.73
2022-12-28T18:49:48.787Z,8.27
2022-12-28T18:51:21.790Z,10.38
2022-12-28T18:52:54.668Z,7.43
2022-12-28T18:54:27.573Z,7.90
2022-12-28T18:56:02.010Z,8.23
2022-12-28T18:57:34.891Z,7.55
2022-12-28T18:59:07.841Z,10.63
2022-12-28T19:00:42.140Z,8.98
2022-12-28T19:02:19.554Z,9.60
2022-12-28T19:03:55.605Z,8.93
2022-12-28T19:05:28.773Z,8.05
2022-12-28T19:07:01.765Z,6.78
2022-12-28T19:08:36.566Z,6.00
2022-12-28T19:10:13.451Z,7.65
2022-12-28T19:11:46.756Z,7.18
2022-12-28T19:13:19.505Z,8.90
2022-12-28T19:14:52.367Z,6.60
2022-12-28T19:16:31.459Z,7.20
2022-12-28T19:18:04.953Z,7.20
2022-12-28T19:19:37.903Z,7.05
2022-12-28T19:21:19.477Z,7.60
2022-12-28T19:22:52.397Z,5.70
2022-12-28T19:24:25.297Z,9.38
2022-12-28T19:25:59.952Z,7.35
2022-12-28T19:27:32.940Z,6.85
2022-12-28T19:29:06.452Z,6.47
2022-12-28T19:30:39.974Z,7.15
2022-12-28T19:32:14.307Z,4.90
2022-12-28T19:33:47.335Z,7.55
2022-12-28T19:35:21.481Z,6.55
2022-12-28T19:36:54.410Z,9.13
2022-12-28T19:38:27.465Z,6.95
2022-12-28T19:40:00.333Z,4.43
2022-12-28T19:41:33.164Z,6.25
2022-12-28T19:43:06.045Z,6.90
2022-12-28T19:44:39.054Z,7.63
2022-12-28T19:46:14.931Z,6.50
2022-12-28T19:47:49.171Z,7.72
2022-12-28T19:49:22.147Z,7.38
2022-12-28T19:50:55.067Z,9.73
2022-12-28T19:52:27.997Z,7.80
2022-12-28T19:54:01.360Z,7.00
2022-12-28T19:57:07.904Z,6.57
2022-12-28T19:58:43.542Z,6.38
2022-12-28T20:00:18.351Z,6.18
2022-12-28T20:01:51.444Z,6.90
2022-12-28T20:03:25.798Z,9.23
2022-12-28T20:04:58.729Z,5.22
2022-12-28T20:06:31.676Z,8.75
2022-12-28T20:08:04.644Z,6.18
2022-12-28T20:09:38.461Z,6.95
2022-12-28T20:11:11.388Z,5.88
2022-12-28T20:12:44.370Z,7.55
2022-12-28T20:14:24.689Z,6.43
2022-12-28T20:15:58.434Z,6.85
2022-12-28T20:17:31.498Z,6.47
2022-12-28T20:19:08.487Z,6.93
2022-12-28T20:21:17.301Z,7.63
2022-12-28T20:22:34.345Z,6.35
2022-12-28T20:24:08.032Z,6.97
2022-12-28T20:25:40.975Z,7.45
2022-12-28T20:27:13.939Z,6.63
2022-12-28T20:28:49.186Z,6.50
2022-12-28T20:30:22.076Z,6.60
2022-12-28T20:31:55.045Z,6.10
2022-12-28T20:33:28.004Z,7.80
2022-12-28T20:35:02.222Z,6.63
2022-12-28T20:36:35.086Z,8.52
2022-12-28T20:38:08.847Z,7.10
2022-12-28T20:39:41.737Z,6.75
2022-12-28T20:41:36.372Z,7.95
2022-12-28T20:43:24.754Z,7.72
2022-12-28T20:44:58.551Z,7.90
2022-12-28T20:46:31.887Z,8.60
2022-12-28T20:49:37.850Z,8.52
2022-12-28T20:51:12.092Z,9.50
2022-12-28T20:52:44.977Z,6.47
2022-12-28T20:54:19.287Z,8.75
2022-12-28T20:55:52.499Z,6.35
2022-12-28T20:57:25.441Z,6.85
2022-12-28T20:58:59.446Z,6.10
2022-12-28T21:00:32.738Z,7.55
2022-12-28T21:03:39.132Z,6.72
2022-12-28T21:05:12.348Z,5.47
2022-12-28T21:06:46.728Z,7.28
2022-12-28T21:08:19.678Z,6.25
2022-12-28T21:09:52.695Z,8.65
2022-12-28T21:11:26.003Z,8.35
2022-12-28T21:12:59.182Z,5.85
2022-12-28T21:14:32.187Z,6.53
2022-12-28T21:16:05.985Z,7.70
2022-12-28T21:17:38.970Z,6.85
2022-12-28T21:19:11.890Z,8.30
2022-12-28T21:20:46.260Z,8.07
2022-12-28T21:22:20.535Z,7.53
2022-12-28T21:23:53.500Z,6.88
2022-12-28T21:25:26.418Z,6.38
2022-12-28T21:26:59.318Z,6.18
2022-12-28T21:28:32.892Z,6.65
2022-12-28T21:30:06.956Z,5.05
2022-12-28T21:31:39.904Z,5.95
2022-12-28T21:33:12.955Z,7.45
2022-12-28T21:34:45.868Z,6.47
2022-12-28T21:36:20.321Z,7.90
2022-12-28T21:37:54.631Z,6.30
2022-12-28T21:39:27.550Z,7.90
2022-12-28T21:41:02.395Z,6.22
2022-12-28T21:42:36.058Z,6.45
2022-12-28T21:44:10.828Z,6.97